sensor_id;sensor_type;location;lat;lon;timestamp;P1;durP1;ratioP1;P2;durP2;ratioP2
51124;SDS011;37163;55.556;39.108;2023-05-10T00:00:15;7.32;;;4.07;;
51124;SDS011;37163;55.556;39.108;2023-05-10T00:02:42;5.55;;;2.92;;
51124;SDS011;37163;55.556;39.108;2023-05-10T00:05:08;6.97;;;3.60;;
51124;SDS011;37163;55.556;39.108;2023-05-10T00:07:35;6.50;;;3.15;;
51124;SDS011;37163;55.556;39.108;2023-05-10T00:10:01;5.13;;;2.75;;
51124;SDS011;37163;55.556;39.108;2023-05-10T00:12:29;8.13;;;3.13;;
51124;SDS011;37163;55.556;39.108;2023-05-10T00:14:55;6.47;;;3.15;;
51124;SDS011;37163;55.556;39.108;2023-05-10T00:17:21;6.13;;;2.92;;
51124;SDS011;37163;55.556;39.108;2023-05-10T00:19:48;5.22;;;3.15;;
51124;SDS011;37163;55.556;39.108;2023-05-10T00:22:14;6.45;;;2.53;;
51124;SDS011;37163;55.556;39.108;2023-05-10T00:24:40;7.25;;;3.00;;
51124;SDS011;37163;55.556;39.108;2023-05-10T00:27:06;6.63;;;2.88;;
51124;SDS011;37163;55.556;39.108;2023-05-10T00:29:32;6.45;;;3.72;;
51124;SDS011;37163;55.556;39.108;2023-05-10T00:31:59;8.73;;;4.22;;
51124;SDS011;37163;55.556;39.108;2023-05-10T00:34:25;6.53;;;3.45;;
51124;SDS011;37163;55.556;39.108;2023-05-10T00:36:51;7.22;;;3.67;;
51124;SDS011;37163;55.556;39.108;2023-05-10T00:39:18;8.52;;;3.65;;
51124;SDS011;37163;55.556;39.108;2023-05-10T00:41:44;6.80;;;3.20;;
51124;SDS011;37163;55.556;39.108;2023-05-10T00:44:11;6.03;;;3.30;;
51124;SDS011;37163;55.556;39.108;2023-05-10T00:46:37;5.85;;;3.33;;
51124;SDS011;37163;55.556;39.108;2023-05-10T00:49:03;6.40;;;3.35;;
51124;SDS011;37163;55.556;39.108;2023-05-10T00:51:30;6.57;;;3.50;;
51124;SDS011;37163;55.556;39.108;2023-05-10T00:53:56;8.57;;;2.97;;
51124;SDS011;37163;55.556;39.108;2023-05-10T00:56:24;6.43;;;2.95;;
51124;SDS011;37163;55.556;39.108;2023-05-10T00:58:51;7.82;;;3.17;;
51124;SDS011;37163;55.556;39.108;2023-05-10T01:01:17;4.93;;;2.80;;
51124;SDS011;37163;55.556;39.108;2023-05-10T01:03:44;7.18;;;2.92;;
51124;SDS011;37163;55.556;39.108;2023-05-10T01:06:10;8.30;;;3.13;;
51124;SDS011;37163;55.556;39.108;2023-05-10T01:08:36;5.43;;;2.90;;
51124;SDS011;37163;55.556;39.108;2023-05-10T01:11:03;5.80;;;2.92;;
51124;SDS011;37163;55.556;39.108;2023-05-10T01:13:36;5.00;;;2.70;;
51124;SDS011;37163;55.556;39.108;2023-05-10T01:16:04;7.45;;;2.97;;
51124;SDS011;37163;55.556;39.108;2023-05-10T01:18:30;8.93;;;4.05;;
51124;SDS011;37163;55.556;39.108;2023-05-10T01:21:14;8.63;;;4.15;;
51124;SDS011;37163;55.556;39.108;2023-05-10T01:31:27;4.97;;;3.15;;
51124;SDS011;37163;55.556;39.108;2023-05-10T01:36:31;7.90;;;3.25;;
51124;SDS011;37163;55.556;39.108;2023-05-10T01:39:02;8.23;;;3.27;;
51124;SDS011;37163;55.556;39.108;2023-05-10T01:41:35;5.82;;;3.17;;
51124;SDS011;37163;55.556;39.108;2023-05-10T01:45:05;5.43;;;3.10;;
51124;SDS011;37163;55.556;39.108;2023-05-10T01:47:17;6.20;;;2.80;;
51124;SDS011;37163;55.556;39.108;2023-05-10T01:49:47;7.35;;;3.80;;
51124;SDS011;37163;55.556;39.108;2023-05-10T01:52:17;7.38;;;3.00;;
51124;SDS011;37163;55.556;39.108;2023-05-10T01:54:50;6.15;;;3.13;;
51124;SDS011;37163;55.556;39.108;2023-05-10T01:57:20;4.13;;;2.50;;
51124;SDS011;37163;55.556;39.108;2023-05-10T01:59:48;5.70;;;3.65;;
51124;SDS011;37163;55.556;39.108;2023-05-10T02:02:16;5.65;;;3.10;;
51124;SDS011;37163;55.556;39.108;2023-05-10T02:04:44;6.40;;;3.22;;
51124;SDS011;37163;55.556;39.108;2023-05-10T02:07:11;5.93;;;3.08;;
51124;SDS011;37163;55.556;39.108;2023-05-10T02:09:37;5.97;;;3.28;;
51124;SDS011;37163;55.556;39.108;2023-05-10T02:12:04;6.70;;;2.90;;
51124;SDS011;37163;55.556;39.108;2023-05-10T02:14:32;4.18;;;2.92;;
51124;SDS011;37163;55.556;39.108;2023-05-10T02:16:59;4.68;;;2.78;;
51124;SDS011;37163;55.556;39.108;2023-05-10T02:19:27;5.28;;;2.78;;
51124;SDS011;37163;55.556;39.108;2023-05-10T02:22:16;6.20;;;3.03;;
51124;SDS011;37163;55.556;39.108;2023-05-10T02:24:42;5.70;;;3.05;;
51124;SDS011;37163;55.556;39.108;2023-05-10T02:27:09;5.32;;;2.90;;
51124;SDS011;37163;55.556;39.108;2023-05-10T02:29:37;5.22;;;3.10;;
51124;SDS011;37163;55.556;39.108;2023-05-10T02:32:04;5.25;;;2.90;;
51124;SDS011;37163;55.556;39.108;2023-05-10T02:34:31;5.57;;;2.85;;
51124;SDS011;37163;55.556;39.108;2023-05-10T02:36:58;6.70;;;2.60;;
51124;SDS011;37163;55.556;39.108;2023-05-10T02:39:25;11.65;;;3.17;;
51124;SDS011;37163;55.556;39.108;2023-05-10T02:41:54;4.70;;;2.90;;
51124;SDS011;37163;55.556;39.108;2023-05-10T02:44:21;6.45;;;2.60;;
51124;SDS011;37163;55.556;39.108;2023-05-10T02:46:48;5.85;;;2.92;;
51124;SDS011;37163;55.556;39.108;2023-05-10T02:49:15;6.68;;;2.83;;
51124;SDS011;37163;55.556;39.108;2023-05-10T02:54:27;6.38;;;2.80;;
51124;SDS011;37163;55.556;39.108;2023-05-10T02:56:59;6.03;;;3.03;;
51124;SDS011;37163;55.556;39.108;2023-05-10T02:59:26;5.97;;;3.00;;
51124;SDS011;37163;55.556;39.108;2023-05-10T03:01:53;4.80;;;2.58;;
51124;SDS011;37163;55.556;39.108;2023-05-10T03:04:19;4.72;;;3.45;;
51124;SDS011;37163;55.556;39.108;2023-05-10T03:06:46;5.80;;;3.13;;
51124;SDS011;37163;55.556;39.108;2023-05-10T03:09:12;5.88;;;2.47;;
51124;SDS011;37163;55.556;39.108;2023-05-10T03:14:10;5.20;;;2.67;;
51124;SDS011;37163;55.556;39.108;2023-05-10T03:16:41;5.25;;;2.83;;
51124;SDS011;37163;55.556;39.108;2023-05-10T03:19:17;4.75;;;2.65;;
51124;SDS011;37163;55.556;39.108;2023-05-10T03:21:49;6.32;;;3.20;;
51124;SDS011;37163;55.556;39.108;2023-05-10T03:24:17;5.93;;;2.72;;
51124;SDS011;37163;55.556;39.108;2023-05-10T03:26:46;5.53;;;3.15;;
51124;SDS011;37163;55.556;39.108;2023-05-10T03:29:17;5.95;;;2.63;;
51124;SDS011;37163;55.556;39.108;2023-05-10T03:31:43;5.13;;;2.88;;
51124;SDS011;37163;55.556;39.108;2023-05-10T03:34:09;8.50;;;3.08;;
51124;SDS011;37163;55.556;39.108;2023-05-10T03:36:36;6.32;;;2.83;;
51124;SDS011;37163;55.556;39.108;2023-05-10T03:39:02;5.63;;;3.10;;
51124;SDS011;37163;55.556;39.108;2023-05-10T03:41:28;5.55;;;2.78;;
51124;SDS011;37163;55.556;39.108;2023-05-10T03:43:55;6.68;;;3.28;;
51124;SDS011;37163;55.556;39.108;2023-05-10T03:46:21;7.40;;;4.10;;
51124;SDS011;37163;55.556;39.108;2023-05-10T03:48:47;6.03;;;3.38;;
51124;SDS011;37163;55.556;39.108;2023-05-10T03:51:13;5.45;;;3.33;;
51124;SDS011;37163;55.556;39.108;2023-05-10T03:53:40;9.48;;;3.42;;
51124;SDS011;37163;55.556;39.108;2023-05-10T03:56:06;6.22;;;3.15;;
51124;SDS011;37163;55.556;39.108;2023-05-10T03:58:32;7.97;;;4.03;;
51124;SDS011;37163;55.556;39.108;2023-05-10T04:00:59;5.25;;;3.10;;
51124;SDS011;37163;55.556;39.108;2023-05-10T04:03:25;7.75;;;3.05;;
51124;SDS011;37163;55.556;39.108;2023-05-10T04:06:01;5.93;;;3.17;;
51124;SDS011;37163;55.556;39.108;2023-05-10T04:08:27;5.85;;;3.03;;
51124;SDS011;37163;55.556;39.108;2023-05-10T04:10:54;5.65;;;2.70;;
51124;SDS011;37163;55.556;39.108;2023-05-10T04:13:20;5.75;;;3.08;;
51124;SDS011;37163;55.556;39.108;2023-05-10T04:15:47;8.63;;;3.10;;
51124;SDS011;37163;55.556;39.108;2023-05-10T04:18:13;5.72;;;2.85;;
51124;SDS011;37163;55.556;39.108;2023-05-10T04:20:39;4.47;;;2.83;;
51124;SDS011;37163;55.556;39.108;2023-05-10T04:23:05;4.05;;;2.45;;
51124;SDS011;37163;55.556;39.108;2023-05-10T04:25:33;5.30;;;2.28;;
51124;SDS011;37163;55.556;39.108;2023-05-10T04:28:00;5.05;;;2.63;;
51124;SDS011;37163;55.556;39.108;2023-05-10T04:30:26;6.20;;;3.63;;
51124;SDS011;37163;55.556;39.108;2023-05-10T04:32:55;5.20;;;3.13;;
51124;SDS011;37163;55.556;39.108;2023-05-10T04:35:21;5.70;;;2.67;;
51124;SDS011;37163;55.556;39.108;2023-05-10T04:37:49;7.38;;;3.25;;
51124;SDS011;37163;55.556;39.108;2023-05-10T04:40:15;6.47;;;2.65;;
51124;SDS011;37163;55.556;39.108;2023-05-10T04:42:41;8.23;;;3.33;;
51124;SDS011;37163;55.556;39.108;2023-05-10T04:45:07;3.42;;;2.17;;
51124;SDS011;37163;55.556;39.108;2023-05-10T04:47:35;4.15;;;2.58;;
51124;SDS011;37163;55.556;39.108;2023-05-10T04:50:03;6.35;;;3.15;;
51124;SDS011;37163;55.556;39.108;2023-05-10T04:52:30;8.07;;;3.42;;
51124;SDS011;37163;55.556;39.108;2023-05-10T04:54:56;6.53;;;3.15;;
51124;SDS011;37163;55.556;39.108;2023-05-10T04:57:23;10.05;;;5.43;;
51124;SDS011;37163;55.556;39.108;2023-05-10T04:59:49;9.90;;;5.20;;
51124;SDS011;37163;55.556;39.108;2023-05-10T05:02:15;8.38;;;5.55;;
51124;SDS011;37163;55.556;39.108;2023-05-10T05:04:41;6.63;;;4.20;;
51124;SDS011;37163;55.556;39.108;2023-05-10T05:07:10;7.40;;;4.55;;
51124;SDS011;37163;55.556;39.108;2023-05-10T05:09:37;11.15;;;6.78;;
51124;SDS011;37163;55.556;39.108;2023-05-10T05:12:04;11.10;;;6.15;;
51124;SDS011;37163;55.556;39.108;2023-05-10T05:14:30;12.90;;;7.28;;
51124;SDS011;37163;55.556;39.108;2023-05-10T05:16:56;14.73;;;9.02;;
51124;SDS011;37163;55.556;39.108;2023-05-10T05:19:23;12.05;;;8.13;;
51124;SDS011;37163;55.556;39.108;2023-05-10T05:21:49;17.23;;;9.05;;
51124;SDS011;37163;55.556;39.108;2023-05-10T05:24:16;17.25;;;9.88;;
51124;SDS011;37163;55.556;39.108;2023-05-10T05:26:42;15.63;;;10.73;;
51124;SDS011;37163;55.556;39.108;2023-05-10T05:29:09;12.88;;;8.35;;
51124;SDS011;37163;55.556;39.108;2023-05-10T05:31:35;13.23;;;9.75;;
51124;SDS011;37163;55.556;39.108;2023-05-10T05:34:01;15.85;;;9.48;;
51124;SDS011;37163;55.556;39.108;2023-05-10T05:36:28;15.25;;;9.63;;
51124;SDS011;37163;55.556;39.108;2023-05-10T05:38:54;16.05;;;9.68;;
51124;SDS011;37163;55.556;39.108;2023-05-10T05:41:20;13.77;;;9.88;;
51124;SDS011;37163;55.556;39.108;2023-05-10T05:43:47;15.10;;;9.35;;
51124;SDS011;37163;55.556;39.108;2023-05-10T05:46:13;19.48;;;11.35;;
51124;SDS011;37163;55.556;39.108;2023-05-10T05:48:39;15.85;;;10.57;;
51124;SDS011;37163;55.556;39.108;2023-05-10T05:51:06;14.52;;;10.32;;
51124;SDS011;37163;55.556;39.108;2023-05-10T05:53:32;14.88;;;8.57;;
51124;SDS011;37163;55.556;39.108;2023-05-10T05:55:58;13.82;;;8.95;;
51124;SDS011;37163;55.556;39.108;2023-05-10T05:58:32;13.95;;;8.23;;
51124;SDS011;37163;55.556;39.108;2023-05-10T06:00:59;13.55;;;8.13;;
51124;SDS011;37163;55.556;39.108;2023-05-10T06:03:25;12.48;;;7.45;;
51124;SDS011;37163;55.556;39.108;2023-05-10T06:05:51;12.32;;;8.25;;
51124;SDS011;37163;55.556;39.108;2023-05-10T06:08:17;11.40;;;8.65;;
51124;SDS011;37163;55.556;39.108;2023-05-10T06:10:44;11.55;;;8.00;;
51124;SDS011;37163;55.556;39.108;2023-05-10T06:13:11;11.32;;;8.23;;
51124;SDS011;37163;55.556;39.108;2023-05-10T06:15:37;11.07;;;7.15;;
51124;SDS011;37163;55.556;39.108;2023-05-10T06:18:04;11.80;;;7.57;;
51124;SDS011;37163;55.556;39.108;2023-05-10T06:20:31;13.35;;;7.15;;
51124;SDS011;37163;55.556;39.108;2023-05-10T06:22:58;10.63;;;6.13;;
51124;SDS011;37163;55.556;39.108;2023-05-10T06:25:24;11.10;;;6.68;;
51124;SDS011;37163;55.556;39.108;2023-05-10T06:27:50;9.27;;;6.65;;
51124;SDS011;37163;55.556;39.108;2023-05-10T06:30:21;10.10;;;5.57;;
51124;SDS011;37163;55.556;39.108;2023-05-10T06:32:53;12.48;;;4.70;;
51124;SDS011;37163;55.556;39.108;2023-05-10T06:35:19;6.15;;;4.20;;
51124;SDS011;37163;55.556;39.108;2023-05-10T06:37:45;6.60;;;4.18;;
51124;SDS011;37163;55.556;39.108;2023-05-10T06:40:12;6.78;;;3.90;;
51124;SDS011;37163;55.556;39.108;2023-05-10T06:42:38;7.03;;;3.95;;
51124;SDS011;37163;55.556;39.108;2023-05-10T06:45:05;7.13;;;3.20;;
51124;SDS011;37163;55.556;39.108;2023-05-10T06:47:32;6.35;;;3.55;;
51124;SDS011;37163;55.556;39.108;2023-05-10T06:49:58;8.40;;;3.78;;
51124;SDS011;37163;55.556;39.108;2023-05-10T06:52:24;6.20;;;3.17;;
51124;SDS011;37163;55.556;39.108;2023-05-10T06:54:50;7.28;;;3.03;;
51124;SDS011;37163;55.556;39.108;2023-05-10T06:57:17;6.18;;;2.50;;
51124;SDS011;37163;55.556;39.108;2023-05-10T06:59:43;4.22;;;2.83;;
51124;SDS011;37163;55.556;39.108;2023-05-10T07:02:09;6.50;;;2.92;;
51124;SDS011;37163;55.556;39.108;2023-05-10T07:04:36;4.30;;;2.60;;
51124;SDS011;37163;55.556;39.108;2023-05-10T07:07:02;7.32;;;2.65;;
51124;SDS011;37163;55.556;39.108;2023-05-10T07:09:47;6.05;;;3.55;;
51124;SDS011;37163;55.556;39.108;2023-05-10T07:12:13;6.80;;;2.90;;
51124;SDS011;37163;55.556;39.108;2023-05-10T07:14:39;6.07;;;3.42;;
51124;SDS011;37163;55.556;39.108;2023-05-10T07:17:05;5.00;;;3.20;;
51124;SDS011;37163;55.556;39.108;2023-05-10T07:19:32;7.35;;;2.65;;
51124;SDS011;37163;55.556;39.108;2023-05-10T07:21:58;5.68;;;2.58;;
51124;SDS011;37163;55.556;39.108;2023-05-10T07:24:24;6.15;;;2.70;;
51124;SDS011;37163;55.556;39.108;2023-05-10T07:26:51;4.20;;;2.40;;
51124;SDS011;37163;55.556;39.108;2023-05-10T07:29:17;4.72;;;2.40;;
51124;SDS011;37163;55.556;39.108;2023-05-10T07:31:43;2.70;;;1.70;;
51124;SDS011;37163;55.556;39.108;2023-05-10T07:34:09;2.55;;;1.75;;
51124;SDS011;37163;55.556;39.108;2023-05-10T07:36:36;3.03;;;1.80;;
51124;SDS011;37163;55.556;39.108;2023-05-10T07:39:02;4.25;;;2.20;;
51124;SDS011;37163;55.556;39.108;2023-05-10T07:41:29;3.30;;;1.90;;
51124;SDS011;37163;55.556;39.108;2023-05-10T07:43:55;3.95;;;2.33;;
51124;SDS011;37163;55.556;39.108;2023-05-10T07:46:23;4.85;;;2.17;;
51124;SDS011;37163;55.556;39.108;2023-05-10T07:48:49;4.40;;;2.13;;
51124;SDS011;37163;55.556;39.108;2023-05-10T07:51:16;3.92;;;2.00;;
51124;SDS011;37163;55.556;39.108;2023-05-10T07:53:42;4.38;;;2.20;;
51124;SDS011;37163;55.556;39.108;2023-05-10T07:59:18;4.82;;;1.98;;
51124;SDS011;37163;55.556;39.108;2023-05-10T08:01:45;4.45;;;2.50;;
51124;SDS011;37163;55.556;39.108;2023-05-10T08:04:12;3.97;;;2.10;;
51124;SDS011;37163;55.556;39.108;2023-05-10T08:06:39;4.25;;;2.20;;
51124;SDS011;37163;55.556;39.108;2023-05-10T08:09:05;6.05;;;3.90;;
51124;SDS011;37163;55.556;39.108;2023-05-10T08:11:31;5.03;;;2.58;;
51124;SDS011;37163;55.556;39.108;2023-05-10T08:13:58;4.45;;;2.03;;
51124;SDS011;37163;55.556;39.108;2023-05-10T08:16:24;3.30;;;2.25;;
51124;SDS011;37163;55.556;39.108;2023-05-10T08:18:51;3.50;;;1.80;;
51124;SDS011;37163;55.556;39.108;2023-05-10T08:21:17;3.85;;;1.90;;
51124;SDS011;37163;55.556;39.108;2023-05-10T08:23:43;4.32;;;1.90;;
51124;SDS011;37163;55.556;39.108;2023-05-10T08:26:09;3.05;;;1.73;;
51124;SDS011;37163;55.556;39.108;2023-05-10T08:28:36;3.60;;;1.75;;
51124;SDS011;37163;55.556;39.108;2023-05-10T08:31:02;3.05;;;1.55;;
51124;SDS011;37163;55.556;39.108;2023-05-10T08:33:28;2.60;;;1.55;;
51124;SDS011;37163;55.556;39.108;2023-05-10T08:35:55;3.88;;;1.95;;
51124;SDS011;37163;55.556;39.108;2023-05-10T08:38:21;3.15;;;1.33;;
51124;SDS011;37163;55.556;39.108;2023-05-10T08:40:47;2.10;;;1.33;;
51124;SDS011;37163;55.556;39.108;2023-05-10T08:43:14;2.58;;;1.30;;
51124;SDS011;37163;55.556;39.108;2023-05-10T08:45:42;2.67;;;1.50;;
51124;SDS011;37163;55.556;39.108;2023-05-10T08:48:12;3.45;;;1.88;;
51124;SDS011;37163;55.556;39.108;2023-05-10T08:50:42;2.97;;;1.65;;
51124;SDS011;37163;55.556;39.108;2023-05-10T08:53:17;3.58;;;1.88;;
51124;SDS011;37163;55.556;39.108;2023-05-10T08:55:44;2.67;;;1.60;;
51124;SDS011;37163;55.556;39.108;2023-05-10T08:58:11;4.72;;;1.63;;
51124;SDS011;37163;55.556;39.108;2023-05-10T09:00:37;3.42;;;1.50;;
51124;SDS011;37163;55.556;39.108;2023-05-10T09:03:04;3.78;;;1.65;;
51124;SDS011;37163;55.556;39.108;2023-05-10T09:05:30;3.75;;;1.52;;
51124;SDS011;37163;55.556;39.108;2023-05-10T09:07:56;2.75;;;1.60;;
51124;SDS011;37163;55.556;39.108;2023-05-10T09:10:22;2.90;;;1.60;;
51124;SDS011;37163;55.556;39.108;2023-05-10T09:12:51;3.22;;;1.80;;
51124;SDS011;37163;55.556;39.108;2023-05-10T09:15:19;2.78;;;1.80;;
51124;SDS011;37163;55.556;39.108;2023-05-10T09:17:46;4.63;;;3.65;;
51124;SDS011;37163;55.556;39.108;2023-05-10T09:20:12;4.47;;;2.00;;
51124;SDS011;37163;55.556;39.108;2023-05-10T09:22:38;3.03;;;1.80;;
51124;SDS011;37163;55.556;39.108;2023-05-10T09:27:34;3.08;;;1.50;;
51124;SDS011;37163;55.556;39.108;2023-05-10T09:30:02;3.03;;;1.67;;
51124;SDS011;37163;55.556;39.108;2023-05-10T09:32:41;2.55;;;1.55;;
51124;SDS011;37163;55.556;39.108;2023-05-10T09:35:11;2.20;;;1.42;;
51124;SDS011;37163;55.556;39.108;2023-05-10T09:37:46;3.05;;;1.67;;
51124;SDS011;37163;55.556;39.108;2023-05-10T09:40:14;2.60;;;1.65;;
51124;SDS011;37163;55.556;39.108;2023-05-10T09:42:42;2.92;;;1.63;;
51124;SDS011;37163;55.556;39.108;2023-05-10T09:45:08;3.65;;;1.60;;
51124;SDS011;37163;55.556;39.108;2023-05-10T09:47:35;2.70;;;1.75;;
51124;SDS011;37163;55.556;39.108;2023-05-10T09:50:02;4.63;;;1.85;;
51124;SDS011;37163;55.556;39.108;2023-05-10T09:52:46;4.32;;;2.33;;
51124;SDS011;37163;55.556;39.108;2023-05-10T09:55:12;3.70;;;1.67;;
51124;SDS011;37163;55.556;39.108;2023-05-10T09:57:39;2.88;;;1.77;;
51124;SDS011;37163;55.556;39.108;2023-05-10T10:00:06;2.45;;;1.85;;
51124;SDS011;37163;55.556;39.108;2023-05-10T10:02:39;3.35;;;1.70;;
51124;SDS011;37163;55.556;39.108;2023-05-10T10:05:06;4.05;;;1.70;;
51124;SDS011;37163;55.556;39.108;2023-05-10T10:07:32;4.78;;;1.88;;
51124;SDS011;37163;55.556;39.108;2023-05-10T10:10:00;3.40;;;1.42;;
51124;SDS011;37163;55.556;39.108;2023-05-10T10:12:39;3.70;;;1.83;;
51124;SDS011;37163;55.556;39.108;2023-05-10T10:15:09;3.45;;;1.50;;
51124;SDS011;37163;55.556;39.108;2023-05-10T10:17:36;2.35;;;1.63;;
51124;SDS011;37163;55.556;39.108;2023-05-10T10:20:04;2.65;;;1.50;;
51124;SDS011;37163;55.556;39.108;2023-05-10T10:22:30;2.47;;;1.60;;
51124;SDS011;37163;55.556;39.108;2023-05-10T10:24:56;3.08;;;1.67;;
51124;SDS011;37163;55.556;39.108;2023-05-10T10:35:03;5.75;;;1.95;;
51124;SDS011;37163;55.556;39.108;2023-05-10T10:37:45;3.30;;;1.70;;
51124;SDS011;37163;55.556;39.108;2023-05-10T10:40:25;2.80;;;1.63;;
51124;SDS011;37163;55.556;39.108;2023-05-10T10:42:51;3.60;;;1.92;;
51124;SDS011;37163;55.556;39.108;2023-05-10T10:45:19;2.78;;;1.50;;
51124;SDS011;37163;55.556;39.108;2023-05-10T10:47:45;3.50;;;1.80;;
51124;SDS011;37163;55.556;39.108;2023-05-10T10:50:12;3.72;;;1.48;;
51124;SDS011;37163;55.556;39.108;2023-05-10T10:52:42;2.22;;;1.35;;
51124;SDS011;37163;55.556;39.108;2023-05-10T10:55:10;3.75;;;1.58;;
51124;SDS011;37163;55.556;39.108;2023-05-10T10:57:46;3.78;;;1.85;;
51124;SDS011;37163;55.556;39.108;2023-05-10T11:00:23;3.60;;;1.27;;
51124;SDS011;37163;55.556;39.108;2023-05-10T11:02:55;2.92;;;1.83;;
51124;SDS011;37163;55.556;39.108;2023-05-10T11:07:55;4.60;;;1.45;;
51124;SDS011;37163;55.556;39.108;2023-05-10T11:10:22;3.08;;;1.70;;
51124;SDS011;37163;55.556;39.108;2023-05-10T11:15:19;3.53;;;2.10;;
51124;SDS011;37163;55.556;39.108;2023-05-10T11:17:45;3.28;;;1.80;;
51124;SDS011;37163;55.556;39.108;2023-05-10T11:20:17;3.67;;;2.00;;
51124;SDS011;37163;55.556;39.108;2023-05-10T11:22:52;4.38;;;1.75;;
51124;SDS011;37163;55.556;39.108;2023-05-10T11:25:18;3.47;;;1.75;;
51124;SDS011;37163;55.556;39.108;2023-05-10T11:27:47;2.72;;;1.60;;
51124;SDS011;37163;55.556;39.108;2023-05-10T11:30:14;3.67;;;1.95;;
51124;SDS011;37163;55.556;39.108;2023-05-10T11:32:40;3.13;;;1.45;;
51124;SDS011;37163;55.556;39.108;2023-05-10T11:35:07;2.63;;;1.73;;
51124;SDS011;37163;55.556;39.108;2023-05-10T11:37:33;2.63;;;1.40;;
51124;SDS011;37163;55.556;39.108;2023-05-10T11:40:00;4.10;;;1.60;;
51124;SDS011;37163;55.556;39.108;2023-05-10T11:42:30;2.67;;;1.67;;
51124;SDS011;37163;55.556;39.108;2023-05-10T11:44:56;4.43;;;1.65;;
51124;SDS011;37163;55.556;39.108;2023-05-10T11:47:22;2.90;;;1.58;;
51124;SDS011;37163;55.556;39.108;2023-05-10T11:49:49;3.03;;;1.55;;
51124;SDS011;37163;55.556;39.108;2023-05-10T11:52:16;2.03;;;1.42;;
51124;SDS011;37163;55.556;39.108;2023-05-10T11:54:45;2.72;;;1.40;;
51124;SDS011;37163;55.556;39.108;2023-05-10T11:57:12;2.95;;;1.40;;
51124;SDS011;37163;55.556;39.108;2023-05-10T11:59:38;4.25;;;1.70;;
51124;SDS011;37163;55.556;39.108;2023-05-10T12:02:04;2.35;;;1.55;;
51124;SDS011;37163;55.556;39.108;2023-05-10T12:04:31;4.07;;;1.60;;
51124;SDS011;37163;55.556;39.108;2023-05-10T12:06:57;3.60;;;1.60;;
51124;SDS011;37163;55.556;39.108;2023-05-10T12:09:23;3.45;;;1.58;;
51124;SDS011;37163;55.556;39.108;2023-05-10T12:11:50;2.30;;;1.38;;
51124;SDS011;37163;55.556;39.108;2023-05-10T12:14:21;5.05;;;1.90;;
51124;SDS011;37163;55.556;39.108;2023-05-10T12:16:48;5.53;;;2.97;;
51124;SDS011;37163;55.556;39.108;2023-05-10T12:19:17;5.07;;;2.05;;
51124;SDS011;37163;55.556;39.108;2023-05-10T12:21:44;1.83;;;1.13;;
51124;SDS011;37163;55.556;39.108;2023-05-10T12:24:10;2.70;;;1.85;;
51124;SDS011;37163;55.556;39.108;2023-05-10T12:26:36;3.63;;;1.65;;
51124;SDS011;37163;55.556;39.108;2023-05-10T12:29:16;4.18;;;1.67;;
51124;SDS011;37163;55.556;39.108;2023-05-10T12:31:56;2.53;;;1.45;;
51124;SDS011;37163;55.556;39.108;2023-05-10T12:34:26;3.35;;;1.63;;
51124;SDS011;37163;55.556;39.108;2023-05-10T12:36:55;3.72;;;1.88;;
51124;SDS011;37163;55.556;39.108;2023-05-10T12:39:23;2.22;;;1.50;;
51124;SDS011;37163;55.556;39.108;2023-05-10T12:41:50;2.65;;;1.60;;
51124;SDS011;37163;55.556;39.108;2023-05-10T12:44:18;4.85;;;2.10;;
51124;SDS011;37163;55.556;39.108;2023-05-10T12:46:44;2.63;;;1.58;;
51124;SDS011;37163;55.556;39.108;2023-05-10T12:49:10;4.25;;;1.98;;
51124;SDS011;37163;55.556;39.108;2023-05-10T12:51:36;3.28;;;1.85;;
51124;SDS011;37163;55.556;39.108;2023-05-10T12:54:03;3.67;;;1.88;;
51124;SDS011;37163;55.556;39.108;2023-05-10T12:56:29;4.15;;;1.80;;
51124;SDS011;37163;55.556;39.108;2023-05-10T12:58:55;4.13;;;1.60;;
51124;SDS011;37163;55.556;39.108;2023-05-10T13:01:22;3.53;;;2.22;;
51124;SDS011;37163;55.556;39.108;2023-05-10T13:03:48;3.60;;;1.80;;
51124;SDS011;37163;55.556;39.108;2023-05-10T13:06:14;4.35;;;1.90;;
51124;SDS011;37163;55.556;39.108;2023-05-10T13:08:40;4.60;;;1.60;;
51124;SDS011;37163;55.556;39.108;2023-05-10T13:11:06;2.63;;;1.50;;
51124;SDS011;37163;55.556;39.108;2023-05-10T13:13:33;2.42;;;1.50;;
51124;SDS011;37163;55.556;39.108;2023-05-10T13:15:59;6.10;;;2.00;;
51124;SDS011;37163;55.556;39.108;2023-05-10T13:18:25;3.45;;;1.95;;
51124;SDS011;37163;55.556;39.108;2023-05-10T13:20:53;2.63;;;1.48;;
51124;SDS011;37163;55.556;39.108;2023-05-10T13:23:19;2.50;;;1.40;;
51124;SDS011;37163;55.556;39.108;2023-05-10T13:26:04;4.20;;;1.55;;
51124;SDS011;37163;55.556;39.108;2023-05-10T13:28:30;3.47;;;1.77;;
51124;SDS011;37163;55.556;39.108;2023-05-10T13:30:56;2.55;;;1.60;;
51124;SDS011;37163;55.556;39.108;2023-05-10T13:33:22;2.28;;;1.40;;
51124;SDS011;37163;55.556;39.108;2023-05-10T13:35:49;4.35;;;1.75;;
51124;SDS011;37163;55.556;39.108;2023-05-10T13:38:15;2.90;;;1.58;;
51124;SDS011;37163;55.556;39.108;2023-05-10T13:40:41;3.20;;;1.60;;
51124;SDS011;37163;55.556;39.108;2023-05-10T13:43:07;5.13;;;1.77;;
51124;SDS011;37163;55.556;39.108;2023-05-10T13:45:33;3.65;;;1.58;;
51124;SDS011;37163;55.556;39.108;2023-05-10T13:48:00;2.58;;;1.60;;
51124;SDS011;37163;55.556;39.108;2023-05-10T13:50:26;3.60;;;1.60;;
51124;SDS011;37163;55.556;39.108;2023-05-10T13:52:52;4.63;;;1.70;;
51124;SDS011;37163;55.556;39.108;2023-05-10T13:55:19;2.90;;;1.70;;
51124;SDS011;37163;55.556;39.108;2023-05-10T13:57:45;3.70;;;1.85;;
51124;SDS011;37163;55.556;39.108;2023-05-10T14:00:11;3.65;;;1.92;;
51124;SDS011;37163;55.556;39.108;2023-05-10T14:02:37;4.90;;;1.55;;
51124;SDS011;37163;55.556;39.108;2023-05-10T14:05:04;2.83;;;2.00;;
51124;SDS011;37163;55.556;39.108;2023-05-10T14:07:30;2.97;;;1.63;;
51124;SDS011;37163;55.556;39.108;2023-05-10T14:09:56;5.18;;;1.95;;
51124;SDS011;37163;55.556;39.108;2023-05-10T14:12:23;3.67;;;1.63;;
51124;SDS011;37163;55.556;39.108;2023-05-10T14:14:49;5.10;;;2.35;;
51124;SDS011;37163;55.556;39.108;2023-05-10T14:17:15;7.35;;;3.15;;
51124;SDS011;37163;55.556;39.108;2023-05-10T14:19:42;3.83;;;2.15;;
51124;SDS011;37163;55.556;39.108;2023-05-10T14:22:08;3.97;;;1.77;;
51124;SDS011;37163;55.556;39.108;2023-05-10T14:24:34;6.35;;;2.30;;
51124;SDS011;37163;55.556;39.108;2023-05-10T14:27:00;3.65;;;1.90;;
51124;SDS011;37163;55.556;39.108;2023-05-10T14:29:27;3.05;;;1.90;;
51124;SDS011;37163;55.556;39.108;2023-05-10T14:31:53;3.10;;;1.80;;
51124;SDS011;37163;55.556;39.108;2023-05-10T14:34:19;5.35;;;1.88;;
51124;SDS011;37163;55.556;39.108;2023-05-10T14:36:46;3.25;;;1.67;;
51124;SDS011;37163;55.556;39.108;2023-05-10T14:39:12;3.05;;;1.75;;
51124;SDS011;37163;55.556;39.108;2023-05-10T14:41:39;3.30;;;1.58;;
51124;SDS011;37163;55.556;39.108;2023-05-10T14:44:08;4.93;;;2.50;;
51124;SDS011;37163;55.556;39.108;2023-05-10T14:46:35;7.38;;;2.38;;
51124;SDS011;37163;55.556;39.108;2023-05-10T14:49:02;5.15;;;1.98;;
51124;SDS011;37163;55.556;39.108;2023-05-10T14:51:28;5.45;;;1.85;;
51124;SDS011;37163;55.556;39.108;2023-05-10T14:53:54;3.42;;;1.75;;
51124;SDS011;37163;55.556;39.108;2023-05-10T14:56:20;3.10;;;1.88;;
51124;SDS011;37163;55.556;39.108;2023-05-10T14:58:47;4.13;;;2.20;;
51124;SDS011;37163;55.556;39.108;2023-05-10T15:01:13;4.78;;;2.13;;
51124;SDS011;37163;55.556;39.108;2023-05-10T15:03:40;3.60;;;2.20;;
51124;SDS011;37163;55.556;39.108;2023-05-10T15:06:07;3.53;;;2.05;;
51124;SDS011;37163;55.556;39.108;2023-05-10T15:08:34;5.07;;;1.80;;